createdAt,value
2018-12-03T00:01:32.540Z,4.80
2018-12-03T00:04:18.658Z,5.53
2018-12-03T00:06:47.294Z,4.60
2018-12-03T00:09:15.681Z,4.93
2018-12-03T00:11:44.114Z,5.13
2018-12-03T00:14:12.808Z,5.50
2018-12-03T00:16:41.247Z,5.53
2018-12-03T00:19:10.015Z,4.93
2018-12-03T00:21:38.416Z,5.33
2018-12-03T00:24:07.473Z,5.00
2018-12-03T00:26:36.037Z,3.93
2018-12-03T00:29:04.671Z,5.03
2018-12-03T00:31:33.057Z,3.70
2018-12-03T00:34:01.445Z,4.67
2018-12-03T00:36:29.873Z,4.47
2018-12-03T00:38:58.577Z,4.47
2018-12-03T00:41:26.920Z,4.57
2018-12-03T00:43:55.328Z,3.93
2018-12-03T00:46:24.058Z,4.23
2018-12-03T00:48:52.559Z,4.70
2018-12-03T00:51:20.919Z,4.37
2018-12-03T00:53:49.664Z,4.50
2018-12-03T00:56:18.046Z,4.00
2018-12-03T00:58:46.462Z,4.47
2018-12-03T01:01:15.546Z,5.60
2018-12-03T01:03:43.964Z,4.33
2018-12-03T01:06:12.985Z,4.10
2018-12-03T01:08:41.367Z,5.07
2018-12-03T01:11:09.871Z,4.70
2018-12-03T01:13:38.256Z,4.20
2018-12-03T01:16:06.650Z,4.60
2018-12-03T01:18:35.055Z,4.27
2018-12-03T01:21:03.478Z,4.03
2018-12-03T01:23:31.846Z,4.50
2018-12-03T01:26:00.909Z,4.50
2018-12-03T01:28:29.527Z,4.50
2018-12-03T01:30:57.917Z,4.57
2018-12-03T01:33:26.258Z,3.60
2018-12-03T01:35:54.659Z,4.13
2018-12-03T01:38:23.381Z,4.00
2018-12-03T01:40:51.869Z,4.00
2018-12-03T01:43:20.253Z,3.90
2018-12-03T01:45:48.713Z,3.80
2018-12-03T01:48:17.071Z,4.23
2018-12-03T01:50:45.488Z,4.20
2018-12-03T01:53:13.862Z,4.97
2018-12-03T01:55:42.233Z,3.83
2018-12-03T01:58:10.623Z,3.23
2018-12-03T02:00:38.993Z,3.33
2018-12-03T02:03:07.363Z,3.27
2018-12-03T02:05:35.747Z,3.27
2018-12-03T02:08:04.191Z,3.43
2018-12-03T02:10:32.575Z,3.40
2018-12-03T02:13:00.993Z,3.60
2018-12-03T02:15:29.408Z,2.50
2018-12-03T02:17:57.754Z,3.30
2018-12-03T02:20:26.136Z,3.37
2018-12-03T02:22:54.492Z,2.83
2018-12-03T02:25:22.896Z,3.47
2018-12-03T02:27:51.260Z,2.93
2018-12-03T02:30:19.799Z,3.70
2018-12-03T02:32:48.194Z,3.10
2018-12-03T02:35:16.653Z,3.60
2018-12-03T02:37:45.026Z,3.43
2018-12-03T02:40:15.538Z,3.43
2018-12-03T02:42:44.268Z,2.97
2018-12-03T02:45:13.501Z,2.90
2018-12-03T02:47:41.906Z,3.27
2018-12-03T02:50:14.323Z,4.17
2018-12-03T02:52:42.722Z,3.93
2018-12-03T02:55:12.004Z,4.07
2018-12-03T02:57:40.379Z,4.00
2018-12-03T03:00:16.185Z,3.60
2018-12-03T03:02:45.076Z,3.57
2018-12-03T03:05:14.394Z,3.03
2018-12-03T03:07:43.011Z,3.73
2018-12-03T03:10:12.549Z,3.70
2018-12-03T03:17:17.738Z,3.87
2018-12-03T03:19:46.150Z,3.40
2018-12-03T03:22:14.517Z,3.63
2018-12-03T03:24:42.922Z,4.40
2018-12-03T03:27:11.320Z,4.17
2018-12-03T03:29:39.676Z,2.77
2018-12-03T03:32:08.228Z,2.87
2018-12-03T03:34:36.609Z,4.03
2018-12-03T03:37:04.981Z,4.87
2018-12-03T03:39:33.376Z,3.47
2018-12-03T03:42:02.089Z,5.20
2018-12-03T03:44:30.494Z,3.20
2018-12-03T03:47:02.824Z,4.30
2018-12-03T03:49:31.200Z,4.50
2018-12-03T03:51:59.578Z,4.70
2018-12-03T03:54:27.986Z,5.33
2018-12-03T03:56:56.364Z,5.20
2018-12-03T03:59:24.783Z,5.67
2018-12-03T04:01:53.165Z,5.03
2018-12-03T04:04:22.595Z,4.33
2018-12-03T04:06:50.968Z,6.00
2018-12-03T04:09:19.372Z,6.07
2018-12-03T04:11:47.781Z,6.53
2018-12-03T04:14:16.145Z,5.00
2018-12-03T04:16:44.514Z,6.90
2018-12-03T04:19:12.851Z,5.97
2018-12-03T04:21:41.215Z,6.40
2018-12-03T04:24:09.631Z,4.77
2018-12-03T04:26:37.986Z,5.23
2018-12-03T04:29:06.365Z,5.47
2018-12-03T04:31:35.087Z,6.13
2018-12-03T04:34:03.641Z,6.77
2018-12-03T04:36:32.017Z,7.47
2018-12-03T04:39:00.413Z,6.07
2018-12-03T04:41:28.763Z,6.50
2018-12-03T04:43:57.140Z,7.63
2018-12-03T04:46:25.511Z,4.83
2018-12-03T04:48:53.995Z,5.73
2018-12-03T04:51:22.343Z,6.17
2018-12-03T04:53:50.735Z,5.47
2018-12-03T04:56:19.199Z,4.33
2018-12-03T04:58:47.603Z,6.53
2018-12-03T05:01:17.043Z,5.50
2018-12-03T05:03:45.411Z,6.63
2018-12-03T05:06:13.910Z,7.03
2018-12-03T05:08:42.312Z,6.73
2018-12-03T05:11:10.704Z,6.07
2018-12-03T05:13:39.112Z,6.97
2018-12-03T05:16:07.498Z,4.93
2018-12-03T05:18:35.889Z,4.87
2018-12-03T05:21:04.604Z,6.17
2018-12-03T05:23:32.964Z,5.93
2018-12-03T05:26:01.346Z,5.13
2018-12-03T05:28:29.703Z,5.33
2018-12-03T05:30:59.082Z,6.73
2018-12-03T05:33:27.436Z,7.23
2018-12-03T05:35:55.898Z,6.00
2018-12-03T05:38:24.336Z,5.67
2018-12-03T05:40:52.984Z,6.63
2018-12-03T05:43:21.345Z,6.90
2018-12-03T05:45:49.721Z,7.30
2018-12-03T05:48:18.126Z,5.90
2018-12-03T05:50:46.563Z,6.10
2018-12-03T05:53:14.958Z,5.83
2018-12-03T05:55:43.335Z,6.53
2018-12-03T05:58:11.707Z,5.27
2018-12-03T06:00:40.093Z,6.67
2018-12-03T06:03:08.491Z,6.27
2018-12-03T06:05:36.858Z,6.97
2018-12-03T06:08:05.922Z,7.17
2018-12-03T06:10:34.278Z,6.50
2018-12-03T06:13:02.623Z,7.07
2018-12-03T06:15:31.011Z,6.03
2018-12-03T06:17:59.382Z,5.80
2018-12-03T06:20:27.781Z,6.63
2018-12-03T06:22:56.195Z,7.30
2018-12-03T06:25:26.138Z,6.33
2018-12-03T06:27:54.529Z,6.83
2018-12-03T06:30:23.930Z,5.53
2018-12-03T06:32:52.325Z,5.83
2018-12-03T06:35:21.014Z,7.23
2018-12-03T06:37:49.955Z,6.57
2018-12-03T06:40:24.633Z,5.97
2018-12-03T06:42:53.001Z,6.07
2018-12-03T06:45:22.853Z,6.37
2018-12-03T06:47:56.305Z,6.53
2018-12-03T06:50:24.687Z,9.20
2018-12-03T06:52:53.033Z,7.43
2018-12-03T06:55:21.468Z,7.37
2018-12-03T06:57:49.839Z,7.40
2018-12-03T07:00:19.953Z,7.97
2018-12-03T07:02:48.420Z,6.10
2018-12-03T07:05:16.811Z,8.93
2018-12-03T07:07:46.390Z,7.10
2018-12-03T07:10:17.550Z,7.10
2018-12-03T07:12:48.106Z,7.20
2018-12-03T07:15:19.124Z,8.13
2018-12-03T07:17:47.790Z,8.37
2018-12-03T07:20:16.153Z,7.90
2018-12-03T07:22:44.548Z,7.33
2018-12-03T07:25:13.080Z,6.77
2018-12-03T07:27:41.779Z,7.40
2018-12-03T07:30:14.632Z,7.30
2018-12-03T07:32:43.514Z,5.70
2018-12-03T07:35:11.876Z,7.47
2018-12-03T07:37:40.222Z,6.67
2018-12-03T07:40:09.906Z,8.23
2018-12-03T07:42:38.436Z,7.83
2018-12-03T07:45:09.400Z,7.50
2018-12-03T07:47:37.738Z,6.37
2018-12-03T07:50:08.384Z,8.27
2018-12-03T07:52:36.815Z,9.10
2018-12-03T07:55:07.817Z,8.23
2018-12-03T07:57:36.211Z,6.87
2018-12-03T08:00:07.136Z,8.40
2018-12-03T08:02:35.508Z,7.43
2018-12-03T08:05:03.941Z,6.17
2018-12-03T08:07:32.292Z,7.30
2018-12-03T08:10:00.674Z,8.27
2018-12-03T08:12:29.038Z,6.87
2018-12-03T08:14:57.404Z,8.40
2018-12-03T08:17:25.776Z,8.23
2018-12-03T08:19:56.562Z,7.87
2018-12-03T08:22:22.649Z,8.63
2018-12-03T08:24:51.034Z,7.47
2018-12-03T08:27:19.453Z,7.23
2018-12-03T08:29:47.825Z,7.53
2018-12-03T08:32:16.181Z,7.30
2018-12-03T08:34:44.893Z,6.93
2018-12-03T08:37:13.273Z,7.37
2018-12-03T08:39:41.647Z,7.43
2018-12-03T08:42:10.143Z,5.97
2018-12-03T08:44:38.485Z,7.03
2018-12-03T08:47:11.246Z,7.53
2018-12-03T08:49:39.625Z,6.50
2018-12-03T08:52:11.995Z,6.27
2018-12-03T08:54:40.388Z,7.03
2018-12-03T08:57:08.836Z,8.03
2018-12-03T08:59:37.226Z,7.17
2018-12-03T09:02:06.233Z,6.40
2018-12-03T09:04:34.768Z,6.37
2018-12-03T09:07:03.155Z,7.50
2018-12-03T09:09:31.524Z,8.50
2018-12-03T09:12:00.229Z,6.17
2018-12-03T09:14:30.258Z,8.57
2018-12-03T09:17:02.452Z,6.47
2018-12-03T09:19:27.520Z,7.73
2018-12-03T09:21:55.924Z,8.27
2018-12-03T09:24:24.270Z,7.87
2018-12-03T09:26:52.626Z,8.33
2018-12-03T09:29:21.015Z,8.50
2018-12-03T09:31:49.355Z,8.00
2018-12-03T09:34:17.712Z,8.47
2018-12-03T09:36:46.438Z,7.97
2018-12-03T09:40:44.273Z,8.90
2018-12-03T09:43:12.730Z,6.90
2018-12-03T09:45:41.078Z,7.97
2018-12-03T09:48:09.424Z,6.10
2018-12-03T09:50:37.785Z,7.60
2018-12-03T09:53:07.002Z,6.97
2018-12-03T09:55:35.355Z,7.17
2018-12-03T09:58:10.295Z,8.00
2018-12-03T10:00:37.863Z,7.80
2018-12-03T10:03:24.959Z,8.67
2018-12-03T10:05:55.383Z,7.27
2018-12-03T10:08:25.282Z,7.30
2018-12-03T10:10:56.473Z,7.60
2018-12-03T10:13:26.801Z,8.50
2018-12-03T10:15:55.178Z,7.63
2018-12-03T10:18:23.573Z,7.93
2018-12-03T10:20:53.649Z,7.20
2018-12-03T10:23:22.195Z,6.43
2018-12-03T10:25:52.794Z,6.30
2018-12-03T10:28:21.514Z,5.93
2018-12-03T10:30:50.760Z,6.57
2018-12-03T10:33:21.488Z,6.17
2018-12-03T10:35:50.412Z,7.23
2018-12-03T10:38:21.325Z,6.70
2018-12-03T10:40:55.162Z,7.33
2018-12-03T10:43:23.672Z,6.07
2018-12-03T10:45:52.072Z,6.23
2018-12-03T10:48:20.442Z,6.67
2018-12-03T10:50:48.872Z,6.50
2018-12-03T10:53:22.110Z,6.40
2018-12-03T10:55:50.493Z,6.53
2018-12-03T10:58:18.877Z,6.87
2018-12-03T11:00:52.558Z,7.10
2018-12-03T11:03:26.929Z,5.73
2018-12-03T11:06:01.157Z,6.47
2018-12-03T11:08:29.627Z,6.33
2018-12-03T11:10:58.018Z,6.27
2018-12-03T11:13:26.444Z,5.80
2018-12-03T11:15:55.183Z,5.30
2018-12-03T11:18:23.949Z,6.87
2018-12-03T11:20:52.313Z,4.43
2018-12-03T11:23:22.638Z,5.73
2018-12-03T11:25:51.942Z,5.03
2018-12-03T11:28:20.326Z,6.63
2018-12-03T11:30:54.538Z,5.70
2018-12-03T11:33:26.305Z,5.33
2018-12-03T11:35:57.364Z,5.20
2018-12-03T11:39:08.830Z,4.63
2018-12-03T11:41:37.898Z,5.90
2018-12-03T11:44:06.762Z,5.90
2018-12-03T11:46:36.402Z,5.43
2018-12-03T11:49:05.756Z,6.23
2018-12-03T11:51:34.447Z,5.87
2018-12-03T11:54:02.808Z,5.73
2018-12-03T11:56:31.369Z,6.93
2018-12-03T11:58:59.745Z,5.80
2018-12-03T12:01:28.468Z,5.20
2018-12-03T12:03:56.853Z,5.27
2018-12-03T12:06:25.218Z,5.43
2018-12-03T12:08:53.577Z,4.93
2018-12-03T12:11:21.947Z,4.70
2018-12-03T12:13:50.348Z,4.93
2018-12-03T12:16:18.771Z,4.27
2018-12-03T12:18:47.303Z,3.90
2018-12-03T12:21:15.667Z,2.73
2018-12-03T12:23:44.091Z,3.10
2018-12-03T12:26:12.474Z,2.30
2018-12-03T12:28:40.897Z,2.97
2018-12-03T12:31:09.262Z,2.73
2018-12-03T12:33:37.652Z,2.10
2018-12-03T12:36:06.332Z,2.60
2018-12-03T12:38:34.718Z,2.93
2018-12-03T12:41:03.164Z,2.53
2018-12-03T12:43:31.592Z,2.60
2018-12-03T12:46:03.239Z,3.07
2018-12-03T12:48:31.626Z,2.70
2018-12-03T12:51:00.374Z,2.30
2018-12-03T12:53:28.843Z,3.43
2018-12-03T12:55:57.205Z,3.00
2018-12-03T12:58:25.563Z,3.53
2018-12-03T13:00:53.953Z,3.47
2018-12-03T13:03:22.672Z,3.50
2018-12-03T13:05:51.043Z,3.40
2018-12-03T13:08:19.466Z,3.13
2018-12-03T13:10:47.864Z,3.47
2018-12-03T13:13:17.376Z,3.73
2018-12-03T13:15:48.060Z,4.00
2018-12-03T13:18:16.444Z,4.40
2018-12-03T13:20:44.836Z,3.97
2018-12-03T13:23:13.232Z,4.93
2018-12-03T13:25:41.666Z,4.20
2018-12-03T13:28:10.123Z,5.03
2018-12-03T13:30:38.575Z,3.67
2018-12-03T13:33:07.185Z,3.93
2018-12-03T13:35:35.844Z,4.73
2018-12-03T13:38:04.785Z,4.50
2018-12-03T13:40:33.562Z,5.03
2018-12-03T13:43:02.041Z,4.87
2018-12-03T13:45:36.919Z,4.63
2018-12-03T13:48:05.815Z,6.27
2018-12-03T13:50:34.319Z,4.00
2018-12-03T13:53:02.763Z,4.67
2018-12-03T13:55:31.281Z,4.80
2018-12-03T13:57:59.807Z,5.17
2018-12-03T14:00:28.619Z,4.13
2018-12-03T14:03:03.989Z,5.10
2018-12-03T14:05:35.451Z,4.93
2018-12-03T14:08:18.108Z,4.77
2018-12-03T14:13:01.700Z,5.17
2018-12-03T14:15:53.943Z,5.23
2018-12-03T14:18:31.165Z,4.17
2018-12-03T14:21:07.385Z,4.90
2018-12-03T14:23:37.491Z,5.13
2018-12-03T14:26:06.443Z,5.03
2018-12-03T14:28:35.193Z,3.77
2018-12-03T14:31:03.953Z,4.27
2018-12-03T14:33:32.323Z,4.50
2018-12-03T14:36:00.685Z,4.63
2018-12-03T14:38:29.077Z,5.37
2018-12-03T14:40:57.496Z,4.03
2018-12-03T14:43:25.866Z,3.33
2018-12-03T14:45:54.220Z,2.50
2018-12-03T14:48:22.667Z,3.37
2018-12-03T14:50:51.066Z,3.60
2018-12-03T14:53:19.467Z,4.30
2018-12-03T14:55:47.812Z,4.03
2018-12-03T14:58:16.199Z,4.33
2018-12-03T15:00:44.637Z,3.70
2018-12-03T15:03:13.029Z,4.33
2018-12-03T15:05:41.505Z,3.87
2018-12-03T15:08:09.895Z,5.63
2018-12-03T15:10:38.268Z,4.30
2018-12-03T15:13:07.014Z,3.80
2018-12-03T15:15:35.425Z,4.47
2018-12-03T15:18:04.154Z,3.43
2018-12-03T15:20:32.608Z,3.60
2018-12-03T15:23:01.024Z,5.47
2018-12-03T15:25:29.417Z,5.40
2018-12-03T15:27:57.794Z,4.97
2018-12-03T15:30:26.171Z,4.90
2018-12-03T15:32:54.593Z,6.17
2018-12-03T15:35:22.961Z,5.17
2018-12-03T15:37:51.397Z,5.67
2018-12-03T15:40:20.157Z,6.97
2018-12-03T15:42:48.568Z,5.77
2018-12-03T15:45:17.402Z,7.50
2018-12-03T15:47:45.780Z,7.63
2018-12-03T15:50:14.148Z,6.67
2018-12-03T15:52:42.576Z,5.33
2018-12-03T15:55:11.347Z,5.43
2018-12-03T15:57:39.730Z,5.90
2018-12-03T16:00:11.533Z,5.67
2018-12-03T16:02:39.957Z,5.63
2018-12-03T16:05:12.252Z,5.07
2018-12-03T16:07:40.683Z,5.27
2018-12-03T16:10:11.863Z,5.53
2018-12-03T16:12:40.365Z,4.23
2018-12-03T16:15:09.140Z,4.40
2018-12-03T16:17:37.877Z,4.57
2018-12-03T16:20:08.311Z,5.07
2018-12-03T16:22:36.745Z,5.43
2018-12-03T16:25:06.965Z,5.33
2018-12-03T16:27:35.375Z,4.97
2018-12-03T16:30:06.442Z,6.20
2018-12-03T16:32:34.854Z,6.27
2018-12-03T16:35:03.241Z,7.53
2018-12-03T16:37:31.620Z,6.03
2018-12-03T16:39:59.988Z,5.13
2018-12-03T16:42:28.497Z,6.67
2018-12-03T16:44:57.660Z,6.17
2018-12-03T16:47:26.050Z,6.70
2018-12-03T16:49:54.446Z,6.87
2018-12-03T16:52:22.818Z,6.90
2018-12-03T16:54:51.240Z,5.50
2018-12-03T16:57:19.591Z,5.73
2018-12-03T16:59:47.947Z,6.00
2018-12-03T17:02:16.607Z,6.17
2018-12-03T17:04:45.014Z,8.10
2018-12-03T17:07:14.162Z,6.67
2018-12-03T17:09:41.846Z,6.43
2018-12-03T17:12:10.203Z,6.37
2018-12-03T17:14:38.617Z,6.53
2018-12-03T17:17:07.060Z,6.83
2018-12-03T17:19:35.463Z,6.80
2018-12-03T17:22:12.882Z,6.90
2018-12-03T17:24:42.864Z,7.83
2018-12-03T17:27:11.243Z,6.30
2018-12-03T17:29:39.631Z,7.30
2018-12-03T17:32:08.043Z,7.43
2018-12-03T17:34:36.450Z,8.10
2018-12-03T17:37:05.219Z,7.50
2018-12-03T17:39:33.587Z,7.47
2018-12-03T17:42:02.319Z,7.47
2018-12-03T17:44:30.725Z,7.53
2018-12-03T17:46:59.549Z,6.53
2018-12-03T17:49:27.964Z,7.20
2018-12-03T17:51:56.387Z,4.60
2018-12-03T17:54:24.862Z,5.83
2018-12-03T17:56:53.237Z,6.67
2018-12-03T17:59:21.701Z,5.90
2018-12-03T18:01:50.449Z,5.87
2018-12-03T18:04:18.869Z,6.33
2018-12-03T18:06:47.277Z,6.27
2018-12-03T18:09:15.657Z,5.63
2018-12-03T18:11:44.751Z,6.07
2018-12-03T18:14:13.114Z,6.77
2018-12-03T18:16:41.553Z,4.77
2018-12-03T18:19:09.968Z,4.00
2018-12-03T18:21:38.363Z,3.60
2018-12-03T18:24:06.763Z,4.37
2018-12-03T18:26:35.255Z,3.93
2018-12-03T18:29:03.985Z,4.83
2018-12-03T18:31:32.321Z,4.30
2018-12-03T18:34:01.461Z,3.93
2018-12-03T18:36:30.760Z,4.73
2018-12-03T18:38:59.329Z,3.47
2018-12-03T18:41:27.707Z,3.27
2018-12-03T18:43:56.088Z,4.93
2018-12-03T18:46:24.444Z,3.00
2018-12-03T18:48:57.989Z,2.63
2018-12-03T18:51:26.418Z,1.53
2018-12-03T18:53:54.765Z,1.63
2018-12-03T18:56:23.126Z,2.20
2018-12-03T18:58:56.245Z,1.90
2018-12-03T19:01:24.640Z,2.03
2018-12-03T19:03:53.508Z,1.83
2018-12-03T19:06:22.289Z,1.27
2018-12-03T19:08:50.732Z,1.30
2018-12-03T19:11:19.083Z,1.57
2018-12-03T19:13:47.480Z,1.53
2018-12-03T19:16:15.858Z,1.30
2018-12-03T19:18:44.216Z,1.73
2018-12-03T19:21:12.599Z,1.53
2018-12-03T19:23:40.992Z,1.57
2018-12-03T19:26:09.380Z,1.83
2018-12-03T19:28:37.754Z,2.30
2018-12-03T19:31:06.172Z,1.97
2018-12-03T19:33:34.538Z,2.37
2018-12-03T19:36:03.300Z,2.10
2018-12-03T19:38:31.712Z,2.37
2018-12-03T19:41:42.097Z,2.37
2018-12-03T19:44:10.502Z,2.13
2018-12-03T19:46:39.536Z,2.07
2018-12-03T19:49:07.976Z,2.10
2018-12-03T19:51:36.937Z,1.70
2018-12-03T19:54:05.671Z,1.57
2018-12-03T19:56:34.255Z,1.23
2018-12-03T19:59:02.680Z,1.70
2018-12-03T20:01:31.280Z,0.53
2018-12-03T20:03:59.951Z,1.00
2018-12-03T20:06:28.518Z,2.00
2018-12-03T20:08:56.932Z,1.97
2018-12-03T20:11:25.329Z,0.87
2018-12-03T20:13:54.042Z,1.53
2018-12-03T20:16:23.276Z,1.40
2018-12-03T20:18:52.244Z,1.77
2018-12-03T20:21:24.342Z,1.90
2018-12-03T20:23:58.412Z,1.90
2018-12-03T20:26:31.352Z,2.33
2018-12-03T20:29:36.672Z,1.67
2018-12-03T20:32:12.554Z,2.23
2018-12-03T20:34:48.909Z,1.63
2018-12-03T20:37:32.662Z,1.20
2018-12-03T20:40:19.526Z,1.27
2018-12-03T20:42:51.491Z,1.83
2018-12-03T20:46:41.656Z,1.77
2018-12-03T20:49:18.851Z,1.80
2018-12-03T20:51:48.185Z,1.60
2018-12-03T20:54:16.930Z,1.50
2018-12-03T20:56:45.313Z,1.43
2018-12-03T20:59:13.661Z,1.40
2018-12-03T21:01:44.259Z,1.07
2018-12-03T21:04:15.653Z,1.50
2018-12-03T21:06:44.387Z,1.23
2018-12-03T21:09:12.737Z,1.13
2018-12-03T21:11:41.715Z,0.70
2018-12-03T21:14:10.321Z,1.47
2018-12-03T21:16:38.709Z,0.70
2018-12-03T21:19:07.065Z,0.90
2018-12-03T21:21:35.455Z,1.37
2018-12-03T21:24:04.252Z,1.33
2018-12-03T21:26:32.819Z,1.10
2018-12-03T21:29:02.053Z,1.40
2018-12-03T21:31:31.394Z,1.40
2018-12-03T21:34:00.378Z,2.10
2018-12-03T21:36:28.761Z,1.47
2018-12-03T21:38:57.664Z,1.47
2018-12-03T21:41:26.109Z,1.40
2018-12-03T21:43:54.529Z,1.30
2018-12-03T21:46:22.911Z,1.63
2018-12-03T21:48:51.324Z,1.70
2018-12-03T21:51:19.714Z,1.90
2018-12-03T21:53:48.194Z,1.63
2018-12-03T21:56:16.616Z,1.40
2018-12-03T21:58:45.100Z,1.43
2018-12-03T22:01:13.466Z,1.40
2018-12-03T22:03:41.862Z,1.40
2018-12-03T22:06:10.237Z,1.40
2018-12-03T22:08:39.284Z,1.07
2018-12-03T22:11:07.673Z,1.47
2018-12-03T22:13:36.035Z,1.13
2018-12-03T22:16:04.810Z,0.47
2018-12-03T22:18:33.312Z,0.60
2018-12-03T22:21:01.675Z,0.73
2018-12-03T22:23:30.542Z,1.00
2018-12-03T22:25:59.054Z,0.90
2018-12-03T22:28:27.439Z,1.10
2018-12-03T22:30:55.949Z,0.90
2018-12-03T22:33:25.337Z,0.80
2018-12-03T22:35:54.401Z,0.90
2018-12-03T22:39:52.261Z,0.90
2018-12-03T22:42:20.613Z,2.03
2018-12-03T22:44:48.956Z,1.20
2018-12-03T22:47:17.352Z,0.90
2018-12-03T22:49:45.965Z,1.40
2018-12-03T22:52:14.691Z,1.50
2018-12-03T22:54:43.402Z,1.77
2018-12-03T22:57:12.037Z,1.77
2018-12-03T22:59:43.408Z,1.30
2018-12-03T23:02:12.666Z,1.53
2018-12-03T23:04:41.072Z,2.00
2018-12-03T23:07:09.428Z,1.60
2018-12-03T23:09:38.193Z,2.00
2018-12-03T23:12:06.536Z,2.33
2018-12-03T23:14:35.318Z,1.90
2018-12-03T23:17:03.674Z,1.50
2018-12-03T23:19:32.012Z,3.13
2018-12-03T23:22:00.367Z,6.50
2018-12-03T23:24:28.713Z,2.77
2018-12-03T23:26:57.083Z,6.27
2018-12-03T23:29:25.445Z,3.67
2018-12-03T23:31:53.807Z,2.57
2018-12-03T23:34:22.167Z,2.97
2018-12-03T23:36:50.555Z,3.23
2018-12-03T23:39:18.907Z,2.10
2018-12-03T23:41:47.299Z,1.47
2018-12-03T23:44:15.660Z,2.40
2018-12-03T23:46:44.019Z,3.37
2018-12-03T23:49:12.380Z,2.37
2018-12-03T23:51:40.816Z,2.20
2018-12-03T23:54:09.630Z,1.93
2018-12-03T23:56:38.483Z,1.50
2018-12-03T23:59:06.874Z,2.33
